Time;durP1;ratioP1;P1;durP2;ratioP2;P2;SDS_P1;SDS_P2;PMS_P1;PMS_P2;Temp;Humidity;BMP_temperature;BMP_pressure;BME280_temperature;BME280_humidity;BME280_pressure;Samples;Min_cycle;Max_cycle;Signal;HPM_P1;HPM_P2
2021/12/01 00:02:25;;;;;;;4.13;2.37;;;;;;;0.73;70.16;97549.36;1736472;80;21160;-58
2021/12/01 00:04:52;;;;;;;2.13;1.83;;;;;;;0.74;70.12;97556.38;1734074;80;21077;-58
2021/12/01 00:07:19;;;;;;;2.30;1.70;;;;;;;0.75;70.09;97562.08;1735476;80;21049;-58
2021/12/01 00:09:45;;;;;;;2.63;2.33;;;;;;;0.79;70.02;97560.14;1737092;80;21328;-58
2021/12/01 00:12:12;;;;;;;3.03;1.47;;;;;;;0.81;69.87;97558.29;1737531;80;21144;-57
2021/12/01 00:14:40;;;;;;;2.47;1.90;;;;;;;0.83;69.72;97552.47;1737660;80;22424;-58
2021/12/01 00:17:11;;;;;;;2.73;1.83;;;;;;;0.85;69.62;97553.27;1736174;80;21323;-58
2021/12/01 00:19:35;;;;;;;2.20;1.70;;;;;;;0.86;69.54;97559.80;1738461;80;20915;-58
2021/12/01 00:22:03;;;;;;;3.17;1.90;;;;;;;0.88;69.62;97557.09;1751029;80;21063;-58
2021/12/01 00:24:31;;;;;;;1.97;1.77;;;;;;;0.88;69.70;97555.77;1746503;80;21076;-57
2021/12/01 00:26:57;;;;;;;3.07;1.70;;;;;;;0.88;69.72;97550.47;1750148;80;21175;-58
2021/12/01 00:29:24;;;;;;;2.43;1.60;;;;;;;0.89;69.74;97553.05;1747670;80;21039;-58
2021/12/01 00:31:50;;;;;;;3.17;1.93;;;;;;;0.92;69.88;97546.77;1751825;80;20973;-57
2021/12/01 00:34:17;;;;;;;3.70;2.00;;;;;;;0.92;70.02;97544.12;1749277;80;22095;-58
2021/12/01 00:36:43;;;;;;;2.87;2.17;;;;;;;0.92;70.29;97546.77;1751854;80;21028;-58
2021/12/01 00:39:09;;;;;;;2.40;1.80;;;;;;;0.92;70.59;97542.33;1742893;80;21119;-57
2021/12/01 00:41:36;;;;;;;5.73;2.80;;;;;;;0.91;70.91;97535.77;1750671;80;21549;-58
2021/12/01 00:44:06;;;;;;;3.13;2.27;;;;;;;0.90;71.20;97528.75;1748499;80;21086;-58
2021/12/01 00:46:39;;;;;;;3.07;1.87;;;;;;;0.86;71.48;97525.36;1739909;80;20981;-58
2021/12/01 00:49:03;;;;;;;2.63;2.43;;;;;;;0.85;71.67;97523.64;1739114;80;21058;-58
2021/12/01 00:51:30;;;;;;;3.33;2.13;;;;;;;0.85;71.82;97522.81;1750381;80;21071;-57
2021/12/01 00:53:56;;;;;;;3.07;2.77;;;;;;;0.84;72.03;97521.09;1747651;80;22422;-57
2021/12/01 00:56:23;;;;;;;2.97;2.60;;;;;;;0.83;72.17;97519.36;1749569;80;21136;-57
2021/12/01 00:58:51;;;;;;;5.13;3.60;;;;;;;0.81;72.29;97514.59;1748083;80;21516;-57
2021/12/01 01:01:18;;;;;;;3.77;2.80;;;;;;;0.80;72.42;97504.92;1749758;80;21079;-58
2021/12/01 01:03:44;;;;;;;4.93;3.37;;;;;;;0.81;72.53;97506.65;1727682;81;21139;-58
2021/12/01 01:06:11;;;;;;;4.67;3.50;;;;;;;0.82;72.57;97512.34;1725881;81;21109;-57
2021/12/01 01:08:37;;;;;;;4.97;3.07;;;;;;;0.82;72.58;97512.34;1746132;80;21075;-58
2021/12/01 01:16:23;;;;;;;4.53;2.27;;;;;;;0.83;72.57;97503.48;1736925;80;21113;-56
2021/12/01 01:19:00;;;;;;;4.08;3.22;;;;;;;0.81;72.64;97510.16;1735702;80;21393;-56
2021/12/01 01:21:31;;;;;;;3.57;3.27;;;;;;;0.77;72.78;97500.62;1738384;80;20914;-57
2021/12/01 01:23:57;;;;;;;7.10;5.43;;;;;;;0.76;73.04;97502.89;1741271;80;22025;-57
2021/12/01 01:26:24;;;;;;;8.43;4.17;;;;;;;0.71;73.21;97495.14;1737939;80;20953;-57
2021/12/01 01:28:51;;;;;;;5.17;4.67;;;;;;;0.69;73.43;97488.19;1738053;80;21098;-56
2021/12/01 01:31:18;;;;;;;3.90;3.53;;;;;;;0.65;73.63;97480.86;1750853;80;20906;-57
2021/12/01 01:33:45;;;;;;;2.97;2.23;;;;;;;0.63;73.79;97476.55;1755575;80;20931;-56
2021/12/01 01:36:12;;;;;;;3.73;2.20;;;;;;;0.60;73.88;97472.25;1757755;79;21001;-56
2021/12/01 01:38:39;;;;;;;4.57;3.73;;;;;;;0.59;74.08;97468.38;1725782;81;20960;-57
2021/12/01 01:41:08;;;;;;;4.63;3.33;;;;;;;0.55;74.42;97462.34;1734454;80;21849;-56
2021/12/01 01:43:36;;;;;;;2.13;1.80;;;;;;;0.49;74.62;97453.36;1759303;80;21004;-56
2021/12/01 01:46:03;;;;;;;2.77;2.57;;;;;;;0.49;74.88;97456.00;1760504;79;20944;-56
2021/12/01 01:48:31;;;;;;;2.90;2.27;;;;;;;0.46;75.06;97453.94;1760534;80;20995;-56
2021/12/01 01:50:59;;;;;;;3.10;2.10;;;;;;;0.44;75.25;97451.82;1762407;79;20969;-56
2021/12/01 01:53:27;;;;;;;3.20;2.30;;;;;;;0.41;75.45;97450.20;1759818;80;21087;-57
2021/12/01 01:55:57;;;;;;;4.03;2.03;;;;;;;0.40;75.54;97443.64;1758490;79;21751;-56
2021/12/01 01:58:24;;;;;;;2.87;2.20;;;;;;;0.39;75.78;97441.45;1760957;80;20862;-56
2021/12/01 02:03:30;;;;;;;2.37;1.60;;;;;;;0.38;76.11;97448.53;1683539;80;21049;-56
2021/12/01 02:05:57;;;;;;;3.63;1.67;;;;;;;0.38;76.29;97436.62;1740913;80;21092;-56
2021/12/01 02:08:30;;;;;;;3.87;1.77;;;;;;;0.37;76.44;97434.04;1741011;80;20926;-56
2021/12/01 02:10:58;;;;;;;2.27;1.70;;;;;;;0.37;76.57;97429.61;1740332;80;22090;-56
2021/12/01 02:13:25;;;;;;;4.00;1.80;;;;;;;0.36;76.69;97422.59;1739135;80;21074;-56
2021/12/01 02:15:52;;;;;;;1.93;1.40;;;;;;;0.34;76.82;97419.64;1740208;80;20942;-56
2021/12/01 02:18:19;;;;;;;4.67;2.00;;;;;;;0.33;77.03;97420.10;1742183;80;21136;-56
2021/12/01 02:21:08;;;;;;;3.40;2.00;;;;;;;0.32;77.12;97412.23;1739432;80;21119;-56
2021/12/01 02:23:35;;;;;;;2.97;1.60;;;;;;;0.32;77.23;97418.84;1741246;80;20955;-56
2021/12/01 02:26:03;;;;;;;2.47;1.63;;;;;;;0.30;77.37;97416.72;1742698;80;20953;-56
2021/12/01 02:28:30;;;;;;;2.23;2.00;;;;;;;0.30;77.49;97412.75;1739430;80;21760;-56
2021/12/01 02:30:59;;;;;;;2.43;1.67;;;;;;;0.30;77.57;97408.78;1740968;81;21468;-56
2021/12/01 02:33:25;;;;;;;1.90;1.57;;;;;;;0.30;77.62;97408.32;1738850;80;20935;-56
2021/12/01 02:35:52;;;;;;;2.20;1.77;;;;;;;0.32;77.67;97417.52;1737548;80;21036;-56
2021/12/01 02:38:18;;;;;;;2.60;1.53;;;;;;;0.30;77.74;97411.42;1736126;80;21038;-56
2021/12/01 02:43:49;;;;;;;1.97;1.77;;;;;;;0.37;77.98;97400.96;1844189;75;26529;-56
2021/12/01 02:46:15;;;;;;;2.40;1.73;;;;;;;0.34;78.04;97406.41;1806998;77;21633;-56
2021/12/01 02:48:42;;;;;;;3.00;1.70;;;;;;;0.35;78.09;97408.09;1806567;77;21205;-56
2021/12/01 02:51:11;;;;;;;2.70;1.70;;;;;;;0.35;78.12;97403.67;1805411;77;21088;-56
2021/12/01 02:53:38;;;;;;;8.50;2.00;;;;;;;0.36;78.12;97409.82;1771945;78;21072;-56
2021/12/01 02:56:05;;;;;;;4.27;2.40;;;;;;;0.37;78.19;97407.11;1771174;78;21048;-56
2021/12/01 02:58:33;;;;;;;5.37;1.77;;;;;;;0.38;78.21;97404.87;1770830;78;21004;-56
2021/12/01 03:01:03;;;;;;;2.27;1.40;;;;;;;0.39;78.22;97411.02;1771491;78;22364;-56
2021/12/01 03:03:31;;;;;;;2.53;1.73;;;;;;;0.38;78.28;97410.16;1773186;78;21096;-56
2021/12/01 03:05:58;;;;;;;2.00;1.30;;;;;;;0.37;78.35;97408.44;1775934;78;21064;-56
2021/12/01 03:08:25;;;;;;;2.33;1.47;;;;;;;0.38;78.43;97407.97;1777517;78;21336;-56
2021/12/01 03:10:53;;;;;;;6.80;1.73;;;;;;;0.39;78.46;97405.73;1772693;78;20945;-56
2021/12/01 03:13:20;;;;;;;3.50;1.63;;;;;;;0.37;78.48;97400.50;1768899;78;21601;-56
2021/12/01 03:15:47;;;;;;;4.23;3.60;;;;;;;0.37;78.64;97398.31;1752535;79;21319;-56
2021/12/01 03:18:14;;;;;;;2.67;2.30;;;;;;;0.37;78.80;97400.50;1760937;79;21226;-55
2021/12/01 03:20:41;;;;;;;3.73;2.70;;;;;;;0.38;78.90;97397.39;1762450;79;21292;-55
2021/12/01 03:23:08;;;;;;;2.00;1.43;;;;;;;0.39;78.95;97396.47;1765743;79;21530;-55
2021/12/01 03:25:35;;;;;;;2.53;2.10;;;;;;;0.42;79.02;97402.09;1761008;79;22374;-56
2021/12/01 03:28:02;;;;;;;2.77;1.63;;;;;;;0.42;79.11;97402.09;1761854;79;21099;-55
2021/12/01 03:30:34;;;;;;;2.37;1.37;;;;;;;0.44;79.19;97391.81;1765609;79;20930;-56
2021/12/01 03:33:02;;;;;;;4.03;2.63;;;;;;;0.48;79.19;97392.55;1746838;79;21494;-56
2021/12/01 03:35:29;;;;;;;2.40;1.87;;;;;;;0.51;79.26;97397.22;1736902;80;21708;-56
2021/12/01 03:37:55;;;;;;;1.80;1.10;;;;;;;0.53;79.29;97391.39;1735145;80;21178;-55
2021/12/01 03:40:22;;;;;;;6.30;1.87;;;;;;;0.54;79.29;97387.82;1734052;80;21053;-55
2021/12/01 03:42:48;;;;;;;2.60;1.53;;;;;;;0.56;79.28;97394.37;1739197;80;21425;-55
2021/12/01 03:45:15;;;;;;;2.30;1.93;;;;;;;0.56;79.29;97395.70;1737864;80;22264;-55
2021/12/01 03:47:42;;;;;;;1.53;1.43;;;;;;;0.58;79.28;97403.11;1742998;80;21008;-55
2021/12/01 03:50:09;;;;;;;3.83;2.03;;;;;;;0.57;79.33;97400.92;1738795;80;21064;-55
2021/12/01 03:52:36;;;;;;;2.40;2.20;;;;;;;0.59;79.36;97396.89;1734502;80;21073;-56
2021/12/01 03:55:03;;;;;;;1.60;1.40;;;;;;;0.60;79.37;97393.28;1733801;80;21084;-55
2021/12/01 03:57:29;;;;;;;1.50;1.10;;;;;;;0.62;79.35;97390.11;1734209;80;21105;-55
2021/12/01 03:59:56;;;;;;;1.60;1.47;;;;;;;0.62;79.39;97388.33;1732718;80;21079;-56
2021/12/01 04:02:22;;;;;;;2.03;1.83;;;;;;;0.62;79.39;97389.66;1731842;80;21677;-56
2021/12/01 04:04:49;;;;;;;3.33;2.17;;;;;;;0.62;79.42;97391.44;1735261;80;21089;-55
2021/12/01 04:07:15;;;;;;;1.60;1.33;;;;;;;0.62;79.47;97389.66;1735731;80;22263;-55
2021/12/01 04:09:43;;;;;;;1.47;1.37;;;;;;;0.64;79.52;97389.59;1736287;80;21638;-55
2021/12/01 04:12:10;;;;;;;2.43;1.50;;;;;;;0.64;79.52;97382.50;1737296;80;22681;-55
2021/12/01 04:14:36;;;;;;;3.17;1.40;;;;;;;0.66;79.57;97381.98;1734768;80;21162;-55
2021/12/01 04:17:04;;;;;;;3.50;1.90;;;;;;;0.66;79.58;97378.00;1738740;80;21081;-55
2021/12/01 04:19:31;;;;;;;1.93;1.63;;;;;;;0.66;79.63;97380.66;1740448;80;20867;-55
2021/12/01 04:21:57;;;;;;;2.73;1.47;;;;;;;0.67;79.68;97385.02;1744087;80;20966;-55
2021/12/01 04:24:24;;;;;;;4.10;1.43;;;;;;;0.70;79.67;97385.32;1740868;80;21883;-55
2021/12/01 04:26:51;;;;;;;2.10;1.77;;;;;;;0.69;79.63;97383.14;1737530;80;22146;-55
2021/12/01 04:29:17;;;;;;;3.23;1.37;;;;;;;0.68;79.69;97387.20;1744102;80;20918;-55
2021/12/01 04:31:44;;;;;;;1.60;1.07;;;;;;;0.69;79.72;97388.44;1740938;80;20993;-55
2021/12/01 04:34:10;;;;;;;2.27;1.50;;;;;;;0.70;79.79;97381.34;1737744;80;20922;-55
2021/12/01 04:36:39;;;;;;;2.27;1.60;;;;;;;0.70;79.84;97376.05;1741767;80;20887;-55
2021/12/01 04:39:08;;;;;;;2.07;1.60;;;;;;;0.70;79.88;97374.27;1735946;81;21289;-55
2021/12/01 04:44:21;;;;;;;2.08;1.42;;;;;;;0.72;79.96;97376.39;1729721;81;20913;-55
2021/12/01 04:46:48;;;;;;;2.33;1.53;;;;;;;0.75;80.00;97378.05;1726731;80;20866;-55
2021/12/01 04:49:20;;;;;;;2.80;2.03;;;;;;;0.77;80.01;97380.13;1711788;81;20981;-55
2021/12/01 04:51:51;;;;;;;2.03;1.83;;;;;;;0.78;80.10;97377.88;1731242;81;21511;-55
2021/12/01 04:54:18;;;;;;;4.47;2.57;;;;;;;0.80;80.16;97382.64;1751577;80;20956;-55
2021/12/01 04:56:46;;;;;;;4.33;2.37;;;;;;;0.81;80.18;97389.66;1751167;80;20940;-54
2021/12/01 04:59:12;;;;;;;2.10;1.90;;;;;;;0.84;80.21;97390.86;1734248;81;20874;-55
2021/12/01 05:01:40;;;;;;;1.93;1.63;;;;;;;0.84;80.17;97396.16;1728300;81;21025;-55
2021/12/01 05:04:08;;;;;;;2.03;1.73;;;;;;;0.86;80.14;97394.73;1744904;80;21539;-55
2021/12/01 05:06:35;;;;;;;4.60;1.80;;;;;;;0.88;80.18;97400.82;1746129;80;21289;-55
2021/12/01 05:09:01;;;;;;;2.57;2.00;;;;;;;0.91;80.15;97397.58;1709746;81;22177;-55
2021/12/01 05:11:28;;;;;;;2.93;2.03;;;;;;;0.93;80.19;97398.38;1721711;81;21066;-55
2021/12/01 05:13:54;;;;;;;2.73;1.70;;;;;;;0.96;80.27;97399.99;1736681;80;21115;-55
2021/12/01 05:16:21;;;;;;;3.87;2.63;;;;;;;0.99;80.20;97395.89;1732308;80;21106;-55
2021/12/01 05:18:48;;;;;;;4.60;1.90;;;;;;;0.99;80.22;97395.42;1724313;81;21086;-55
2021/12/01 05:21:14;;;;;;;1.60;1.20;;;;;;;1.03;80.17;97397.45;1728605;80;21121;-55
2021/12/01 05:23:41;;;;;;;1.90;1.40;;;;;;;1.04;80.17;97396.05;1731495;81;21733;-55
2021/12/01 05:26:09;;;;;;;2.50;1.20;;;;;;;1.05;80.11;97399.09;1734496;81;21046;-55
2021/12/01 05:28:39;;;;;;;2.00;1.40;;;;;;;1.07;80.11;97401.22;1732021;81;22628;-55
2021/12/01 05:31:07;;;;;;;3.70;1.73;;;;;;;1.10;80.14;97406.84;1729758;81;21455;-55
2021/12/01 05:33:34;;;;;;;5.93;1.80;;;;;;;1.10;80.16;97410.35;1734102;81;21061;-55
2021/12/01 05:36:00;;;;;;;3.47;1.93;;;;;;;1.13;80.22;97414.16;1733573;81;21504;-54
2021/12/01 05:38:27;;;;;;;3.03;1.67;;;;;;;1.17;80.19;97420.19;1729155;81;21092;-54
2021/12/01 05:40:53;;;;;;;3.00;1.57;;;;;;;1.21;80.14;97435.45;1727260;81;21172;-55
2021/12/01 05:43:19;;;;;;;2.10;1.10;;;;;;;1.23;80.10;97423.00;1737052;80;21092;-55
2021/12/01 05:45:46;;;;;;;2.13;1.03;;;;;;;1.24;80.08;97433.53;1742665;80;21084;-55
2021/12/01 05:48:14;;;;;;;2.47;1.70;;;;;;;1.25;80.03;97437.91;1753996;80;21077;-55
2021/12/01 05:50:41;;;;;;;1.90;1.20;;;;;;;1.25;80.01;97435.25;1745332;80;21068;-54
2021/12/01 05:53:07;;;;;;;1.97;1.40;;;;;;;1.26;80.04;97438.30;1747506;80;21722;-55
2021/12/01 05:55:33;;;;;;;2.00;1.33;;;;;;;1.27;80.06;97432.07;1750641;79;21084;-55
2021/12/01 05:58:00;;;;;;;2.43;1.57;;;;;;;1.28;80.05;97441.71;1750002;80;21126;-54
2021/12/01 06:00:26;;;;;;;6.13;1.00;;;;;;;1.30;80.09;97443.83;1749406;80;21050;-55
2021/12/01 06:02:53;;;;;;;3.00;1.63;;;;;;;1.33;80.08;97451.64;1755428;80;21088;-54
2021/12/01 06:05:20;;;;;;;1.83;1.53;;;;;;;1.34;80.00;97451.18;1751659;80;21306;-54
2021/12/01 06:07:48;;;;;;;2.33;1.70;;;;;;;1.31;79.99;97453.97;1751209;80;21525;-54
2021/12/01 06:10:16;;;;;;;1.93;1.33;;;;;;;1.31;80.01;97461.45;1748742;80;21629;-55
2021/12/01 06:12:44;;;;;;;3.10;1.50;;;;;;;1.33;80.02;97464.04;1750125;80;21675;-55
2021/12/01 06:15:13;;;;;;;1.77;1.20;;;;;;;1.32;80.01;97471.13;1757137;80;20989;-54
2021/12/01 06:17:40;;;;;;;1.97;1.47;;;;;;;1.33;80.06;97468.02;1719030;81;21766;-54
2021/12/01 06:20:08;;;;;;;2.07;1.30;;;;;;;1.34;80.09;97471.92;1748271;80;22462;-54
2021/12/01 06:22:34;;;;;;;2.00;1.30;;;;;;;1.37;80.13;97482.82;1746061;80;20913;-54
2021/12/01 06:25:01;;;;;;;1.30;1.20;;;;;;;1.41;80.19;97478.64;1755529;80;20956;-54
2021/12/01 06:27:28;;;;;;;2.87;1.27;;;;;;;1.44;80.10;97480.30;1749741;80;22383;-54
2021/12/01 06:29:54;;;;;;;2.07;1.30;;;;;;;1.44;80.01;97484.28;1751162;80;22463;-54
2021/12/01 06:32:21;;;;;;;1.80;1.30;;;;;;;1.44;80.08;97489.58;1746717;80;21367;-54
2021/12/01 06:34:48;;;;;;;1.50;1.20;;;;;;;1.46;80.06;97484.57;1754227;80;22192;-54
2021/12/01 06:37:15;;;;;;;1.23;0.90;;;;;;;1.48;80.07;97490.67;1750373;80;21605;-54
2021/12/01 06:39:42;;;;;;;1.43;0.97;;;;;;;1.52;80.08;97487.42;1754705;79;21425;-54
2021/12/01 06:42:08;;;;;;;1.53;1.20;;;;;;;1.55;80.04;97491.69;1745081;80;21125;-55
2021/12/01 06:44:35;;;;;;;1.57;1.10;;;;;;;1.55;80.05;97496.99;1734914;80;21104;-54
2021/12/01 06:47:03;;;;;;;2.17;1.33;;;;;;;1.59;80.16;97505.21;1735037;81;21340;-53
2021/12/01 06:49:30;;;;;;;3.83;1.30;;;;;;;1.62;80.10;97511.20;1729339;81;21061;-55
2021/12/01 06:51:57;;;;;;;3.50;1.30;;;;;;;1.63;80.03;97510.28;1732550;81;21057;-54
2021/12/01 06:54:23;;;;;;;2.10;1.40;;;;;;;1.64;79.96;97509.34;1730826;81;23248;-54
2021/12/01 06:56:50;;;;;;;2.00;1.20;;;;;;;1.66;79.97;97510.61;1723187;81;21453;-54
2021/12/01 06:59:16;;;;;;;1.83;1.17;;;;;;;1.69;79.99;97519.29;1717765;81;21749;-54
2021/12/01 07:01:43;;;;;;;2.70;1.47;;;;;;;1.73;80.01;97525.28;1720901;81;21053;-54
2021/12/01 07:04:10;;;;;;;2.23;1.23;;;;;;;1.76;79.88;97528.66;1732769;80;21033;-54
2021/12/01 07:06:36;;;;;;;1.83;1.13;;;;;;;1.79;79.91;97536.91;1742985;81;21223;-54
2021/12/01 07:09:03;;;;;;;1.60;1.40;;;;;;;1.82;79.85;97535.45;1727497;80;21068;-54
2021/12/01 07:11:30;;;;;;;2.43;1.33;;;;;;;1.84;79.71;97545.53;1737026;80;20859;-53
2021/12/01 07:13:56;;;;;;;1.90;1.20;;;;;;;1.85;79.70;97546.79;1727720;81;20915;-54
2021/12/01 07:16:23;;;;;;;2.80;1.30;;;;;;;1.85;79.58;97556.07;1741166;80;20981;-54
2021/12/01 07:18:50;;;;;;;1.77;1.13;;;;;;;1.86;79.54;97559.59;1736892;80;21365;-54
2021/12/01 07:21:16;;;;;;;1.40;1.20;;;;;;;1.86;79.50;97563.10;1737827;81;21322;-54
2021/12/01 07:23:43;;;;;;;2.57;1.20;;;;;;;1.87;79.56;97566.62;1723903;81;21377;-54
2021/12/01 07:26:09;;;;;;;2.80;1.30;;;;;;;1.91;79.56;97565.52;1734809;80;20867;-54
2021/12/01 07:28:36;;;;;;;2.30;1.50;;;;;;;1.97;79.62;97569.66;1731768;80;21092;-54
2021/12/01 07:31:02;;;;;;;2.17;1.20;;;;;;;2.02;79.59;97571.17;1746734;80;21106;-54
2021/12/01 07:33:29;;;;;;;2.43;1.30;;;;;;;2.05;79.45;97574.98;1750223;80;21495;-54
2021/12/01 07:35:56;;;;;;;2.23;1.60;;;;;;;2.05;79.33;97573.66;1735272;81;20963;-54
2021/12/01 07:38:22;;;;;;;2.30;1.53;;;;;;;2.04;79.22;97570.61;1735893;80;21359;-54
2021/12/01 07:40:49;;;;;;;2.03;1.47;;;;;;;2.03;79.18;97578.20;1740488;80;21760;-53
2021/12/01 07:43:16;;;;;;;1.80;1.30;;;;;;;2.03;79.18;97574.23;1740526;80;21136;-54
2021/12/01 07:45:44;;;;;;;1.53;1.10;;;;;;;2.03;79.14;97575.55;1727041;80;21575;-53
2021/12/01 07:48:11;;;;;;;2.60;1.30;;;;;;;2.04;79.14;97578.57;1748693;80;21052;-53
2021/12/01 07:50:37;;;;;;;3.83;1.60;;;;;;;2.06;79.14;97583.80;1733201;80;21535;-53
2021/12/01 07:53:04;;;;;;;3.67;2.30;;;;;;;2.11;79.17;97585.33;1740101;80;21323;-54
2021/12/01 07:55:30;;;;;;;2.40;1.90;;;;;;;2.12;79.10;97580.41;1737011;80;21098;-53
2021/12/01 07:57:57;;;;;;;2.80;1.83;;;;;;;2.15;79.09;97586.02;1744316;80;21096;-54
2021/12/01 08:00:23;;;;;;;2.87;2.27;;;;;;;2.14;79.03;97588.27;1732281;81;21120;-54
2021/12/01 08:02:50;;;;;;;1.90;1.60;;;;;;;2.13;79.01;97599.82;1747445;80;21096;-53
2021/12/01 08:05:17;;;;;;;2.30;2.07;;;;;;;2.10;78.99;97599.52;1734001;80;21056;-53
2021/12/01 08:07:43;;;;;;;5.33;2.83;;;;;;;2.10;78.97;97607.95;1730267;80;21186;-53
2021/12/01 08:10:10;;;;;;;1.97;1.37;;;;;;;2.10;79.03;97611.47;1737907;80;21084;-54
2021/12/01 08:12:38;;;;;;;3.37;1.80;;;;;;;2.12;79.07;97617.57;1735082;81;21023;-53
2021/12/01 08:15:06;;;;;;;2.03;1.30;;;;;;;2.17;79.07;97613.34;1756998;80;21066;-53
2021/12/01 08:17:34;;;;;;;2.47;2.03;;;;;;;2.19;79.09;97624.76;1732814;81;21085;-53
2021/12/01 08:20:01;;;;;;;2.00;1.77;;;;;;;2.21;79.04;97629.03;1748223;80;21070;-53
2021/12/01 08:22:28;;;;;;;2.43;2.00;;;;;;;2.23;78.97;97624.98;1735066;81;21109;-53
2021/12/01 08:24:57;;;;;;;3.60;1.60;;;;;;;2.23;78.93;97625.84;1740438;81;21066;-53
2021/12/01 08:27:24;;;;;;;3.43;2.20;;;;;;;2.22;78.85;97636.07;1741792;81;21452;-54
2021/12/01 08:29:51;;;;;;;2.40;1.70;;;;;;;2.20;78.83;97639.76;1729016;81;21067;-52
2021/12/01 08:32:18;;;;;;;2.33;2.10;;;;;;;2.16;78.83;97640.36;1728421;81;22251;-53
2021/12/01 08:34:49;;;;;;;4.37;2.67;;;;;;;2.16;78.89;97640.36;1738136;81;21498;-52
2021/12/01 08:37:15;;;;;;;4.43;2.40;;;;;;;2.16;78.93;97641.69;1735041;81;21068;-53
2021/12/01 08:39:42;;;;;;;4.50;2.77;;;;;;;2.17;78.96;97647.39;1733264;81;21057;-53
2021/12/01 08:42:10;;;;;;;4.60;3.30;;;;;;;2.17;79.00;97650.05;1733854;80;21056;-53
2021/12/01 08:44:37;;;;;;;7.40;3.27;;;;;;;2.18;79.03;97650.91;1745473;81;21113;-53
2021/12/01 08:47:04;;;;;;;4.53;3.17;;;;;;;2.20;79.02;97651.70;1741810;81;21025;-53
2021/12/01 08:49:30;;;;;;;3.33;3.03;;;;;;;2.21;78.96;97660.06;1743671;80;21100;-53
2021/12/01 08:51:57;;;;;;;4.00;2.80;;;;;;;2.19;78.90;97663.25;1739429;81;21076;-53
2021/12/01 08:54:23;;;;;;;5.20;2.50;;;;;;;2.19;78.94;97662.78;1740897;81;21479;-53
2021/12/01 08:56:50;;;;;;;6.03;2.60;;;;;;;2.22;78.90;97667.06;1737757;81;21591;-53
2021/12/01 08:59:16;;;;;;;1.90;1.70;;;;;;;2.22;78.95;97670.58;1740068;81;21003;-53
2021/12/01 09:01:43;;;;;;;2.33;1.97;;;;;;;2.24;78.95;97672.70;1734646;81;21659;-54
2021/12/01 09:04:10;;;;;;;3.73;2.00;;;;;;;2.28;78.95;97674.29;1717027;81;21049;-54
2021/12/01 09:06:36;;;;;;;4.10;3.30;;;;;;;2.31;78.97;97682.55;1740953;80;21097;-53
2021/12/01 09:09:03;;;;;;;5.10;2.90;;;;;;;2.37;78.93;97684.94;1740097;80;21159;-53
2021/12/01 09:11:30;;;;;;;3.90;2.90;;;;;;;2.40;78.85;97682.58;1737481;80;21052;-54
2021/12/01 09:13:56;;;;;;;5.53;3.33;;;;;;;2.41;78.70;97690.47;1739207;80;21141;-54
2021/12/01 09:16:25;;;;;;;5.17;3.87;;;;;;;2.42;78.67;97697.97;1737553;80;21140;-53
2021/12/01 09:18:52;;;;;;;2.67;2.23;;;;;;;2.41;78.59;97702.89;1736961;81;21088;-53
2021/12/01 09:21:18;;;;;;;4.60;2.30;;;;;;;2.40;78.47;97702.48;1740449;80;21155;-54
2021/12/01 09:23:45;;;;;;;3.57;2.03;;;;;;;2.40;78.44;97700.70;1737662;81;21100;-54
2021/12/01 09:26:12;;;;;;;2.30;1.50;;;;;;;2.42;78.28;97707.27;1694787;80;21379;-54
2021/12/01 09:28:38;;;;;;;4.13;1.33;;;;;;;2.42;78.11;97706.80;1729629;80;21468;-54
2021/12/01 09:31:04;;;;;;;6.07;2.33;;;;;;;2.44;78.12;97708.06;1732417;81;21455;-55
2021/12/01 09:33:32;;;;;;;2.97;2.27;;;;;;;2.46;78.08;97712.38;1733137;81;21164;-53
2021/12/01 09:35:58;;;;;;;4.20;2.80;;;;;;;2.48;77.88;97710.48;1739669;81;21069;-54
2021/12/01 09:38:26;;;;;;;2.70;2.50;;;;;;;2.45;77.67;97709.78;1732573;80;21095;-55
2021/12/01 09:40:54;;;;;;;3.33;2.33;;;;;;;2.40;77.64;97721.94;1737033;81;21144;-55
2021/12/01 09:43:25;;;;;;;3.37;2.10;;;;;;;2.38;77.57;97733.59;1734661;81;21617;-54
2021/12/01 09:45:52;;;;;;;3.60;1.80;;;;;;;2.34;77.52;97735.98;1736990;80;21122;-54
2021/12/01 09:48:19;;;;;;;2.10;1.90;;;;;;;2.31;77.58;97746.27;1746648;81;22178;-54
2021/12/01 09:50:45;;;;;;;1.87;1.50;;;;;;;2.29;77.61;97752.14;1742571;81;21096;-53
2021/12/01 09:53:14;;;;;;;2.70;1.50;;;;;;;2.28;77.62;97756.59;1723248;81;21092;-54
2021/12/01 09:55:43;;;;;;;2.73;2.07;;;;;;;2.31;77.71;97757.34;1749536;80;21759;-53
2021/12/01 09:58:13;;;;;;;3.70;2.00;;;;;;;2.34;77.64;97767.84;1745846;80;21125;-54
2021/12/01 10:00:48;;;;;;;2.30;2.10;;;;;;;2.31;77.50;97760.00;1744065;80;21381;-53
2021/12/01 10:03:14;;;;;;;2.90;1.52;;;;;;;2.28;77.52;97764.55;1745450;80;20926;-53
2021/12/01 10:06:07;;;;;;;1.87;1.30;;;;;;;2.26;77.46;97773.51;1747838;80;20913;-53
2021/12/01 10:08:53;;;;;;;2.00;1.60;;;;;;;2.22;77.51;97778.08;1747483;80;20925;-53
2021/12/01 10:11:27;;;;;;;1.57;1.47;;;;;;;2.23;77.46;97779.81;1743684;81;20949;-53
2021/12/01 10:14:08;;;;;;;1.40;1.30;;;;;;;2.22;77.43;97787.38;1750550;81;21464;-53
2021/12/01 10:16:38;;;;;;;2.60;1.83;;;;;;;2.22;77.40;97795.34;1746594;81;21543;-54
2021/12/01 10:19:08;;;;;;;2.90;1.60;;;;;;;2.24;77.36;97801.45;1731607;81;20905;-53
2021/12/01 10:21:43;;;;;;;1.40;1.20;;;;;;;2.23;77.32;97803.70;1719320;81;21594;-53
2021/12/01 10:24:17;;;;;;;5.30;1.37;;;;;;;2.20;77.25;97802.53;1749786;80;21766;-54
2021/12/01 10:26:56;;;;;;;1.67;1.52;;;;;;;2.18;77.27;97804.39;1758615;80;20940;-54
2021/12/01 10:29:27;;;;;;;2.07;1.70;;;;;;;2.15;77.31;97803.66;1756017;80;20956;-54
2021/12/01 10:32:08;;;;;;;1.97;1.77;;;;;;;2.13;77.43;97805.05;1755478;80;20865;-52
2021/12/01 10:34:39;;;;;;;1.60;1.37;;;;;;;2.15;77.48;97815.59;1755150;80;21379;-53
2021/12/01 10:37:26;;;;;;;3.00;2.10;;;;;;;2.18;77.58;97820.31;1756157;80;21109;-53
2021/12/01 10:40:11;;;;;;;2.90;2.30;;;;;;;2.18;77.36;97816.80;1745996;80;21071;-54
2021/12/01 10:42:55;;;;;;;2.43;2.17;;;;;;;2.15;77.44;97818.25;1728861;81;21101;-55
2021/12/01 10:45:24;;;;;;;2.20;2.00;;;;;;;2.10;77.36;97830.88;1740788;81;20931;-52
2021/12/01 10:47:51;;;;;;;2.17;1.60;;;;;;;2.04;77.31;97825.36;1734944;81;20978;-53
2021/12/01 10:50:21;;;;;;;2.30;2.07;;;;;;;2.00;77.35;97841.04;1714686;81;21173;-53
2021/12/01 10:52:53;;;;;;;3.07;1.90;;;;;;;1.97;77.36;97843.81;1735291;81;21348;-53
2021/12/01 10:55:25;;;;;;;1.37;1.27;;;;;;;1.95;77.49;97840.39;1751672;80;21123;-55
2021/12/01 10:57:58;;;;;;;3.13;2.00;;;;;;;1.98;77.55;97838.91;1749997;80;21507;-53
2021/12/01 11:00:28;;;;;;;2.67;1.80;;;;;;;2.03;77.65;97850.66;1751553;80;21044;-53
2021/12/01 11:03:08;;;;;;;2.37;1.93;;;;;;;2.10;77.60;97855.62;1762831;80;21468;-54
2021/12/01 11:05:48;;;;;;;2.70;2.50;;;;;;;2.14;77.54;97857.20;1750491;79;21032;-54
2021/12/01 11:08:20;;;;;;;2.20;2.00;;;;;;;2.18;77.52;97862.78;1753912;80;21040;-53
2021/12/01 11:10:51;;;;;;;3.13;1.93;;;;;;;2.19;77.39;97867.63;1749778;80;21037;-54
2021/12/01 11:13:18;;;;;;;2.63;1.60;;;;;;;2.21;77.30;97863.95;1755765;80;21095;-54
2021/12/01 11:15:53;;;;;;;3.43;2.43;;;;;;;2.21;77.13;97861.30;1739871;81;21092;-53
2021/12/01 11:18:26;;;;;;;4.13;2.27;;;;;;;2.22;77.11;97864.36;1725853;80;21068;-53
2021/12/01 11:20:58;;;;;;;5.30;3.27;;;;;;;2.23;76.99;97864.75;1731504;81;21755;-55
2021/12/01 11:23:30;;;;;;;2.83;2.50;;;;;;;2.25;77.02;97867.34;1741552;80;21394;-54
2021/12/01 11:26:08;;;;;;;3.20;2.73;;;;;;;2.25;76.86;97868.21;1721295;81;21093;-53
2021/12/01 11:28:43;;;;;;;3.40;2.90;;;;;;;2.23;76.69;97861.23;1734255;81;21150;-55
2021/12/01 11:31:17;;;;;;;2.50;2.30;;;;;;;2.20;76.81;97868.89;1750831;78;20944;-54
2021/12/01 11:33:44;;;;;;;2.60;1.87;;;;;;;2.20;76.70;97872.88;1758395;80;21435;-53
2021/12/01 11:36:17;;;;;;;3.00;2.00;;;;;;;2.20;76.58;97879.52;1763656;79;21084;-53
2021/12/01 11:38:52;;;;;;;2.63;2.20;;;;;;;2.22;76.45;97890.03;1716018;81;22584;-54
2021/12/01 11:41:19;;;;;;;2.00;1.80;;;;;;;2.23;76.22;97887.32;1736675;80;22296;-56
2021/12/01 11:43:45;;;;;;;2.10;1.87;;;;;;;2.24;75.94;97891.70;1730729;81;21543;-53
2021/12/01 11:46:11;;;;;;;2.13;1.67;;;;;;;2.23;75.45;97893.95;1733157;80;21488;-53
2021/12/01 11:48:53;;;;;;;2.80;2.40;;;;;;;2.21;75.31;97902.45;1733010;80;21056;-54
2021/12/01 11:51:25;;;;;;;3.93;2.23;;;;;;;2.19;75.26;97904.80;1733962;81;21124;-54
2021/12/01 11:54:16;;;;;;;2.23;2.03;;;;;;;2.18;75.25;97905.72;1734861;81;21114;-54
2021/12/01 11:56:57;;;;;;;2.20;1.50;;;;;;;2.19;75.00;97906.98;1734045;80;21057;-54
2021/12/01 11:59:33;;;;;;;2.33;1.37;;;;;;;2.19;74.80;97916.27;1736848;80;21426;-54
2021/12/01 12:02:10;;;;;;;1.80;1.40;;;;;;;2.18;74.69;97918.53;1727624;81;21067;-55